OSOK1: Oswego hwy 160

                                SHEF ID:       OSOK1     Oswego hwy 160
STATION TYPE:

PRECIP STAGE RIV-FLOW VOLTAGE BAT-LOAD
in ft cfs volt volt
Ccp-Rev Ccp-Rev Ccp-Rev Ccp-Rev Ccp-Rev
(America/Chicago)
03/11 00:00 0.00 13.58 4602 12.79 12.53
03/11 01:00 0.00 13.56 4578 12.78 12.51
03/11 02:00 0.00 13.54 4554 12.77 12.50
03/11 03:00 0.00 13.54 4554 12.74 12.48
03/11 04:00 0.00 13.55 4566 12.73 12.47
03/11 05:00 0.00 13.61 4637 12.71 12.44
03/11 06:00 0.00 13.73 4780 12.70 12.43
03/11 07:00 0.00 13.89 4973 12.68 12.42
03/11 08:00 0.00 14.08 5205 12.67 12.40
03/11 09:00 0.00 14.27 5436 12.70 12.41
03/11 10:00 0.00 14.45 5645 13.05 12.54
03/11 11:00 0.00 14.60 5820 13.87 13.16
03/11 12:00 0.00 14.72 5962 14.42 13.44
03/11 13:00 0.00 14.78 6033 14.43 13.39
03/11 14:00 0.00 14.82 6080 13.95 13.38
03/11 15:00 0.00 14.83 6092 13.99 13.24
03/11 16:00 0.00 14.80 6056 13.99 13.22
03/11 17:00 0.00 14.77 6021 14.03 13.19
03/11 18:00 0.00 14.72 5962 13.97 13.19
03/11 19:00 0.00 14.67 5903 13.38 13.15
03/11 20:00 0.00 14.65 5879 13.09 12.88
03/11 21:00 0.00 14.68 5914 12.92 12.70
03/11 22:00 0.00 14.73 5973 12.83 12.57
03/11 23:00 0.00 14.82 6080 12.78 12.53
Data processed at Thu 12Mar2026 04:50 GMT

NOTICE: If you are parsing this page

Please convert to using our Data API. Starting early 2026 we will be migrating to: https://water.usace.army.mil with modern pages rendered in JavaScript. When this migration completes you will no longer be able to scrape this page! CWMSDataAPI (CDA)

Timeseries IDs (TSIDs)

TSIDs used from left to right in the data table
OSWN.Precip-Inc.Total.1Hour.1Hour.Ccp-Rev
OSWN.Stage.Inst.1Hour.0.Ccp-Rev
OSWN.Flow.Inst.1Hour.0.Ccp-Rev
OSWN.Volt-Battery.Inst.1Hour.0.Ccp-Rev
OSWN.Volt-Battery Load.Inst.1Hour.0.Ccp-Rev

                            

All information presented herein is the property of the government of the United States of America and may be revised or deleted at any time without prior notice. Dissemination of this information without the expressed written consent of the Public Affairs Office, Tulsa District U.S. Army Corps of Engineers is strictly prohibited. These data are gathered electronically and, as presented, have NOT undergone any form of quality control. These data are NOT guaranteed to be valid or correct.